createdAt,value
2019-05-09T00:02:13.949Z,4.83
2019-05-09T00:04:41.239Z,4.97
2019-05-09T00:07:09.808Z,5.60
2019-05-09T00:09:37.030Z,5.10
2019-05-09T00:12:04.389Z,5.10
2019-05-09T00:14:34.048Z,4.70
2019-05-09T00:17:00.866Z,4.75
2019-05-09T00:19:28.147Z,5.72
2019-05-09T00:21:55.757Z,5.47
2019-05-09T00:24:23.841Z,5.47
2019-05-09T00:26:53.262Z,4.92
2019-05-09T00:29:27.810Z,5.25
2019-05-09T00:32:03.474Z,4.47
2019-05-09T00:34:49.580Z,5.40
2019-05-09T00:37:16.990Z,5.10
2019-05-09T00:39:44.233Z,4.83
2019-05-09T00:42:13.728Z,5.67
2019-05-09T00:44:53.287Z,5.62
2019-05-09T00:47:27.921Z,5.28
2019-05-09T00:49:55.208Z,5.12
2019-05-09T00:52:23.470Z,5.45
2019-05-09T00:54:53.015Z,5.45
2019-05-09T00:57:34.776Z,5.87
2019-05-09T01:00:05.507Z,5.53
2019-05-09T01:02:34.033Z,4.95
2019-05-09T01:05:04.020Z,5.40
2019-05-09T01:07:33.643Z,4.92
2019-05-09T01:10:00.939Z,5.50
2019-05-09T01:12:28.229Z,5.30
2019-05-09T01:14:55.451Z,5.65
2019-05-09T01:17:24.079Z,5.15
2019-05-09T01:19:53.859Z,5.80
2019-05-09T01:22:21.191Z,6.05
2019-05-09T01:24:48.486Z,5.62
2019-05-09T01:27:15.951Z,5.22
2019-05-09T01:29:43.965Z,5.92
2019-05-09T01:32:14.446Z,6.17
2019-05-09T01:34:43.664Z,6.37
2019-05-09T01:37:13.919Z,5.95
2019-05-09T01:39:40.973Z,5.53
2019-05-09T01:42:08.213Z,6.45
2019-05-09T01:44:35.646Z,5.42
2019-05-09T01:47:03.833Z,5.78
2019-05-09T01:49:31.327Z,6.22
2019-05-09T01:51:58.544Z,6.67
2019-05-09T01:54:26.555Z,6.55
2019-05-09T01:56:53.884Z,6.28
2019-05-09T01:59:21.151Z,6.65
2019-05-09T02:01:48.457Z,6.97
2019-05-09T02:04:15.694Z,6.78
2019-05-09T02:06:44.057Z,6.80
2019-05-09T02:09:13.865Z,6.78
2019-05-09T02:11:43.315Z,6.28
2019-05-09T02:14:13.463Z,6.40
2019-05-09T02:16:54.634Z,6.25
2019-05-09T02:19:26.250Z,6.28
2019-05-09T02:21:53.455Z,6.03
2019-05-09T02:24:23.187Z,6.28
2019-05-09T02:26:49.799Z,6.20
2019-05-09T02:29:17.014Z,6.05
2019-05-09T02:31:44.864Z,6.00
2019-05-09T02:34:14.906Z,7.03
2019-05-09T02:36:41.197Z,6.30
2019-05-09T02:39:09.131Z,6.00
2019-05-09T02:41:38.938Z,6.53
2019-05-09T02:44:09.007Z,5.85
2019-05-09T02:46:41.966Z,6.58
2019-05-09T02:49:09.249Z,6.47
2019-05-09T02:51:38.756Z,6.22
2019-05-09T02:54:09.556Z,6.12
2019-05-09T02:56:38.395Z,5.92
2019-05-09T02:59:09.481Z,5.97
2019-05-09T03:01:50.297Z,6.55
2019-05-09T03:04:18.862Z,5.70
2019-05-09T03:06:48.915Z,5.72
2019-05-09T03:09:18.755Z,6.12
2019-05-09T03:11:44.607Z,6.12
2019-05-09T03:14:11.827Z,5.92
2019-05-09T03:16:40.023Z,6.28
2019-05-09T03:19:09.071Z,6.65
2019-05-09T03:21:39.218Z,6.03
2019-05-09T03:24:09.829Z,5.95
2019-05-09T03:26:38.611Z,5.50
2019-05-09T03:29:10.734Z,6.25
2019-05-09T03:31:39.832Z,5.75
2019-05-09T03:34:09.366Z,6.65
2019-05-09T03:36:38.529Z,5.40
2019-05-09T03:39:08.224Z,5.62
2019-05-09T03:41:35.533Z,5.37
2019-05-09T03:44:02.798Z,5.30
2019-05-09T03:46:38.487Z,4.92
2019-05-09T03:49:07.742Z,5.40
2019-05-09T03:51:34.970Z,4.37
2019-05-09T03:54:02.270Z,4.55
2019-05-09T03:56:33.912Z,4.95
2019-05-09T03:59:01.134Z,4.92
2019-05-09T04:01:28.361Z,4.47
2019-05-09T04:03:55.653Z,4.55
2019-05-09T04:06:22.889Z,4.85
2019-05-09T04:08:50.124Z,4.35
2019-05-09T04:11:18.971Z,4.78
2019-05-09T04:13:47.999Z,4.60
2019-05-09T04:16:17.346Z,4.50
2019-05-09T04:18:44.329Z,5.00
2019-05-09T04:21:11.555Z,4.60
2019-05-09T04:23:38.777Z,4.78
2019-05-09T04:26:19.998Z,5.10
2019-05-09T04:31:14.458Z,4.97
2019-05-09T04:33:42.035Z,5.12
2019-05-09T04:36:09.280Z,5.08
2019-05-09T04:38:39.741Z,5.28
2019-05-09T04:41:07.429Z,4.78
2019-05-09T04:43:37.473Z,5.20
2019-05-09T04:46:07.879Z,4.75
2019-05-09T04:48:37.956Z,4.40
2019-05-09T04:51:07.591Z,4.40
2019-05-09T04:53:34.316Z,4.45
2019-05-09T04:56:03.347Z,4.42
2019-05-09T04:58:30.759Z,4.08
2019-05-09T05:01:19.549Z,4.10
2019-05-09T05:03:48.012Z,4.35
2019-05-09T05:06:18.165Z,4.40
2019-05-09T05:08:44.318Z,4.75
2019-05-09T05:11:11.600Z,3.90
2019-05-09T05:13:39.764Z,4.15
2019-05-09T05:16:08.446Z,4.00
2019-05-09T05:18:37.384Z,4.22
2019-05-09T05:21:04.890Z,4.50
2019-05-09T05:23:48.976Z,4.20
2019-05-09T05:26:18.294Z,4.60
2019-05-09T05:28:47.473Z,4.10
2019-05-09T05:31:14.837Z,4.42
2019-05-09T05:33:53.889Z,4.58
2019-05-09T05:36:23.185Z,3.80
2019-05-09T05:38:50.734Z,4.65
2019-05-09T05:41:18.417Z,4.08
2019-05-09T05:43:47.767Z,4.85
2019-05-09T05:46:18.208Z,4.70
2019-05-09T05:48:48.536Z,5.15
2019-05-09T05:51:15.390Z,5.12
2019-05-09T05:53:42.656Z,4.70
2019-05-09T05:56:09.937Z,4.85
2019-05-09T05:58:39.507Z,3.62
2019-05-09T06:01:08.218Z,3.55
2019-05-09T06:03:37.667Z,3.40
2019-05-09T06:06:05.762Z,3.40
2019-05-09T06:08:33.039Z,3.40
2019-05-09T06:11:00.487Z,3.50
2019-05-09T06:13:27.742Z,3.58
2019-05-09T06:15:55.185Z,3.37
2019-05-09T06:18:22.464Z,3.52
2019-05-09T06:20:49.726Z,3.22
2019-05-09T06:23:17.653Z,2.98
2019-05-09T06:25:48.259Z,2.85
2019-05-09T06:28:14.538Z,3.05
2019-05-09T06:30:41.831Z,2.60
2019-05-09T06:33:09.285Z,3.12
2019-05-09T06:35:37.908Z,3.12
2019-05-09T06:38:07.685Z,3.00
2019-05-09T06:40:34.439Z,2.70
2019-05-09T06:43:03.812Z,2.90
2019-05-09T06:45:32.847Z,2.67
2019-05-09T06:48:00.442Z,3.80
2019-05-09T06:50:28.159Z,2.58
2019-05-09T06:52:57.214Z,2.50
2019-05-09T06:55:27.665Z,2.80
2019-05-09T06:57:54.504Z,2.80
2019-05-09T07:00:48.934Z,2.30
2019-05-09T07:03:28.350Z,3.17
2019-05-09T07:06:04.432Z,2.90
2019-05-09T07:08:47.533Z,2.37
2019-05-09T07:11:14.760Z,3.60
2019-05-09T07:13:42.019Z,3.20
2019-05-09T07:16:09.371Z,2.30
2019-05-09T07:18:38.265Z,2.50
2019-05-09T07:21:05.551Z,2.77
2019-05-09T07:23:32.801Z,2.50
2019-05-09T07:26:10.547Z,2.42
2019-05-09T07:28:37.872Z,2.72
2019-05-09T07:31:19.038Z,2.22
2019-05-09T07:36:18.934Z,2.47
2019-05-09T07:38:47.786Z,1.92
2019-05-09T07:41:17.637Z,2.42
2019-05-09T07:43:44.439Z,2.35
2019-05-09T07:46:13.464Z,2.35
2019-05-09T07:48:42.497Z,2.05
2019-05-09T07:51:09.772Z,2.45
2019-05-09T07:53:38.020Z,1.72
2019-05-09T07:56:07.906Z,2.10
2019-05-09T07:58:37.506Z,2.77
2019-05-09T08:01:03.970Z,2.58
2019-05-09T08:03:31.238Z,2.10
2019-05-09T08:05:58.549Z,1.98
2019-05-09T08:08:27.768Z,2.00
2019-05-09T08:10:54.842Z,1.82
2019-05-09T08:13:22.139Z,2.12
2019-05-09T08:15:49.363Z,2.40
2019-05-09T08:18:17.440Z,1.70
2019-05-09T08:20:44.787Z,2.65
2019-05-09T08:23:12.050Z,2.00
2019-05-09T08:25:39.285Z,2.58
2019-05-09T08:28:08.831Z,2.10
2019-05-09T08:30:37.427Z,2.50
2019-05-09T08:33:04.980Z,2.05
2019-05-09T08:35:32.287Z,2.42
2019-05-09T08:37:59.556Z,1.95
2019-05-09T08:40:28.384Z,2.50
2019-05-09T08:42:58.358Z,2.35
2019-05-09T08:45:30.248Z,2.75
2019-05-09T08:47:53.945Z,2.42
2019-05-09T08:50:28.588Z,2.08
2019-05-09T08:52:57.621Z,2.50
2019-05-09T08:55:24.854Z,2.00
2019-05-09T08:57:52.124Z,2.45
2019-05-09T09:00:19.341Z,3.05
2019-05-09T09:02:48.235Z,2.40
2019-05-09T09:05:18.444Z,2.20
2019-05-09T09:07:44.743Z,2.37
2019-05-09T09:10:12.024Z,2.17
2019-05-09T09:12:39.345Z,1.80
2019-05-09T09:15:07.707Z,2.20
2019-05-09T09:17:35.230Z,2.47
2019-05-09T09:20:04.684Z,2.65
2019-05-09T09:22:31.926Z,1.80
2019-05-09T09:24:59.161Z,2.60
2019-05-09T09:27:27.440Z,1.90
2019-05-09T09:29:54.667Z,2.02
2019-05-09T09:32:21.917Z,2.00
2019-05-09T09:34:49.212Z,2.17
2019-05-09T09:37:18.467Z,1.92
2019-05-09T09:39:45.456Z,2.42
2019-05-09T09:42:12.801Z,2.17
2019-05-09T09:44:40.031Z,2.45
2019-05-09T09:47:07.438Z,2.08
2019-05-09T09:49:35.345Z,2.58
2019-05-09T09:52:02.586Z,2.40
2019-05-09T09:54:29.791Z,2.30
2019-05-09T09:56:58.647Z,2.00
2019-05-09T09:59:33.887Z,2.10
2019-05-09T10:02:10.018Z,2.55
2019-05-09T10:04:34.612Z,2.80
2019-05-09T10:07:01.829Z,2.50
2019-05-09T10:09:29.114Z,2.37
2019-05-09T10:11:58.186Z,2.30
2019-05-09T10:14:30.361Z,2.40
2019-05-09T10:16:59.382Z,2.05
2019-05-09T10:19:31.509Z,2.08
2019-05-09T10:22:00.830Z,2.60
2019-05-09T10:24:28.200Z,2.35
2019-05-09T10:27:11.833Z,2.30
2019-05-09T10:29:39.146Z,2.45
2019-05-09T10:32:08.928Z,2.70
2019-05-09T10:34:37.808Z,2.50
2019-05-09T10:37:07.541Z,3.27
2019-05-09T10:39:34.254Z,2.42
2019-05-09T10:42:03.553Z,2.40
2019-05-09T10:44:37.462Z,2.37
2019-05-09T10:47:09.217Z,2.35
2019-05-09T10:49:37.955Z,2.40
2019-05-09T10:52:05.513Z,2.33
2019-05-09T10:54:32.837Z,2.75
2019-05-09T10:57:00.066Z,2.87
2019-05-09T10:59:27.326Z,2.20
2019-05-09T11:01:54.938Z,2.50
2019-05-09T11:04:22.197Z,1.80
2019-05-09T11:06:49.414Z,2.25
2019-05-09T11:09:18.221Z,2.27
2019-05-09T11:11:48.173Z,2.47
2019-05-09T11:14:31.580Z,2.75
2019-05-09T11:16:47.383Z,2.20
2019-05-09T11:19:12.938Z,2.17
2019-05-09T11:21:42.945Z,1.80
2019-05-09T11:24:10.751Z,1.98
2019-05-09T11:26:39.869Z,1.98
2019-05-09T11:29:07.959Z,2.20
2019-05-09T11:31:38.170Z,1.98
2019-05-09T11:34:04.758Z,2.37
2019-05-09T11:36:32.195Z,2.00
2019-05-09T11:39:00.804Z,2.10
2019-05-09T11:41:29.530Z,3.05
2019-05-09T11:43:59.496Z,2.40
2019-05-09T11:46:28.125Z,2.52
2019-05-09T11:48:55.313Z,2.30
2019-05-09T11:51:22.946Z,2.85
2019-05-09T11:53:50.349Z,1.92
2019-05-09T11:56:18.094Z,2.30
2019-05-09T11:58:47.828Z,2.27
2019-05-09T12:01:14.792Z,2.20
2019-05-09T12:03:42.043Z,2.00
2019-05-09T12:06:09.307Z,2.10
2019-05-09T12:08:38.731Z,2.00
2019-05-09T12:11:08.187Z,2.30
2019-05-09T12:13:34.752Z,2.37
2019-05-09T12:16:02.072Z,2.05
2019-05-09T12:18:29.301Z,1.95
2019-05-09T12:20:57.729Z,1.75
2019-05-09T12:23:25.075Z,2.12
2019-05-09T12:25:53.854Z,2.00
2019-05-09T12:28:21.079Z,1.85
2019-05-09T12:30:48.993Z,1.80
2019-05-09T12:33:18.655Z,1.80
2019-05-09T12:35:47.606Z,1.80
2019-05-09T12:38:14.464Z,1.60
2019-05-09T12:40:41.749Z,2.05
2019-05-09T12:43:09.234Z,1.92
2019-05-09T12:45:38.801Z,2.40
2019-05-09T12:48:14.611Z,2.27
2019-05-09T12:50:38.569Z,2.12
2019-05-09T12:53:06.737Z,2.05
2019-05-09T12:55:33.958Z,1.80
2019-05-09T12:58:01.186Z,1.95
2019-05-09T13:00:29.491Z,2.02
2019-05-09T13:02:59.233Z,2.20
2019-05-09T13:05:27.414Z,1.85
2019-05-09T13:07:54.920Z,1.67
2019-05-09T13:10:22.145Z,2.20
2019-05-09T13:12:49.457Z,2.50
2019-05-09T13:15:18.565Z,2.80
2019-05-09T13:17:48.008Z,2.25
2019-05-09T13:20:17.875Z,2.20
2019-05-09T13:22:47.165Z,1.92
2019-05-09T13:25:14.426Z,2.12
2019-05-09T13:27:43.221Z,2.00
2019-05-09T13:30:10.838Z,1.72
2019-05-09T13:32:38.383Z,1.70
2019-05-09T13:35:05.624Z,1.80
2019-05-09T13:37:33.129Z,1.90
2019-05-09T13:40:00.402Z,1.82
2019-05-09T13:42:28.541Z,1.80
2019-05-09T13:44:56.294Z,2.00
2019-05-09T13:47:23.509Z,2.10
2019-05-09T13:49:50.743Z,2.02
2019-05-09T13:52:18.159Z,2.40
2019-05-09T13:54:48.032Z,1.90
2019-05-09T13:57:14.592Z,2.20
2019-05-09T13:59:42.252Z,1.95
2019-05-09T14:02:09.515Z,1.92
2019-05-09T14:04:39.704Z,2.05
2019-05-09T14:07:08.090Z,1.98
2019-05-09T14:09:34.896Z,4.00
2019-05-09T14:12:02.457Z,1.95
2019-05-09T14:14:29.765Z,2.77
2019-05-09T14:16:59.221Z,1.80
2019-05-09T14:19:39.901Z,2.00
2019-05-09T14:21:58.251Z,1.90
2019-05-09T14:24:24.306Z,1.95
2019-05-09T14:26:51.549Z,2.20
2019-05-09T14:29:20.575Z,1.50
2019-05-09T14:31:48.130Z,2.00
2019-05-09T14:34:15.384Z,1.85
2019-05-09T14:36:45.727Z,2.20
2019-05-09T14:39:11.747Z,1.75
2019-05-09T14:41:39.377Z,1.80
2019-05-09T14:44:09.374Z,1.72
2019-05-09T14:46:35.852Z,2.20
2019-05-09T14:49:03.113Z,1.80
2019-05-09T14:51:30.778Z,2.02
2019-05-09T14:53:59.498Z,1.65
2019-05-09T14:56:28.335Z,2.07
2019-05-09T14:58:57.916Z,2.10
2019-05-09T15:01:28.434Z,2.22
2019-05-09T15:03:54.644Z,1.50
2019-05-09T15:06:21.937Z,2.27
2019-05-09T15:08:49.163Z,1.65
2019-05-09T15:11:18.194Z,1.87
2019-05-09T15:13:47.575Z,1.87
2019-05-09T15:16:14.523Z,2.15
2019-05-09T15:18:41.793Z,1.95
2019-05-09T15:21:09.111Z,1.62
2019-05-09T15:23:39.066Z,2.40
2019-05-09T15:26:07.582Z,1.70
2019-05-09T15:28:34.560Z,1.90
2019-05-09T15:31:02.091Z,1.72
2019-05-09T15:33:29.385Z,1.35
2019-05-09T15:35:58.908Z,1.75
2019-05-09T15:38:25.710Z,2.37
2019-05-09T15:40:52.975Z,2.10
2019-05-09T15:43:20.256Z,1.82
2019-05-09T15:45:49.310Z,2.75
2019-05-09T15:48:18.089Z,2.30
2019-05-09T15:50:47.593Z,2.33
2019-05-09T15:53:14.635Z,2.40
2019-05-09T15:55:41.913Z,2.00
2019-05-09T15:58:09.199Z,1.87
2019-05-09T16:00:38.484Z,1.52
2019-05-09T16:03:05.542Z,1.77
2019-05-09T16:05:32.921Z,1.60
2019-05-09T16:08:00.156Z,1.98
2019-05-09T16:10:28.353Z,2.25
2019-05-09T16:12:56.410Z,2.52
2019-05-09T16:15:24.058Z,3.55
2019-05-09T16:17:51.305Z,1.80
2019-05-09T16:20:35.943Z,1.95
2019-05-09T16:22:48.244Z,2.37
2019-05-09T16:25:15.665Z,2.20
2019-05-09T16:27:43.028Z,2.27
2019-05-09T16:30:10.403Z,1.77
2019-05-09T16:32:38.070Z,2.45
2019-05-09T16:35:07.763Z,2.02
2019-05-09T16:37:52.849Z,2.40
2019-05-09T16:40:05.472Z,2.00
2019-05-09T16:42:33.299Z,2.42
2019-05-09T16:45:00.859Z,2.55
2019-05-09T16:47:28.509Z,4.33
2019-05-09T16:49:57.894Z,9.83
2019-05-09T16:52:24.878Z,2.92
2019-05-09T16:54:54.062Z,2.72
2019-05-09T16:57:21.700Z,2.60
2019-05-09T16:59:49.060Z,2.50
2019-05-09T17:02:23.993Z,3.20
2019-05-09T17:04:46.966Z,3.20
2019-05-09T17:07:14.557Z,2.37
2019-05-09T17:09:42.792Z,2.80
2019-05-09T17:12:10.057Z,2.50
2019-05-09T17:14:37.273Z,2.27
2019-05-09T17:17:04.686Z,3.15
2019-05-09T17:19:31.994Z,3.02
2019-05-09T17:22:12.980Z,2.67
2019-05-09T17:24:40.765Z,2.40
2019-05-09T17:27:08.795Z,5.42
2019-05-09T17:29:38.320Z,4.53
2019-05-09T17:32:07.589Z,4.22
2019-05-09T17:34:35.094Z,3.67
2019-05-09T17:37:02.451Z,4.80
2019-05-09T17:39:29.770Z,4.15
2019-05-09T17:41:59.503Z,4.97
2019-05-09T17:44:28.093Z,4.58
2019-05-09T17:46:57.767Z,4.85
2019-05-09T17:49:24.656Z,5.67
2019-05-09T17:51:52.484Z,6.65
2019-05-09T17:54:20.004Z,6.20
2019-05-09T17:56:48.433Z,6.30
2019-05-09T17:59:18.358Z,6.47
2019-05-09T18:01:48.254Z,6.05
2019-05-09T18:04:17.769Z,6.40
2019-05-09T18:06:44.625Z,8.60
2019-05-09T18:09:11.926Z,8.63
2019-05-09T18:11:39.153Z,9.18
2019-05-09T18:14:08.080Z,12.73
2019-05-09T18:16:38.746Z,16.95
2019-05-09T18:19:04.832Z,18.07
2019-05-09T18:21:32.158Z,21.65
2019-05-09T18:24:00.751Z,13.95
2019-05-09T18:26:28.001Z,13.78
2019-05-09T18:28:58.535Z,13.20
2019-05-09T18:31:27.902Z,15.58
2019-05-09T18:33:58.211Z,13.45
2019-05-09T18:36:28.197Z,35.52
2019-05-09T18:38:55.799Z,24.40
2019-05-09T18:41:23.129Z,22.85
2019-05-09T18:43:50.393Z,13.43
2019-05-09T18:46:21.190Z,11.63
2019-05-09T18:48:46.909Z,11.65
2019-05-09T18:51:15.086Z,11.20
2019-05-09T18:53:44.241Z,11.73
2019-05-09T18:56:11.829Z,13.53
2019-05-09T18:58:39.554Z,17.73
2019-05-09T19:01:06.961Z,17.98
2019-05-09T19:03:34.298Z,19.50
2019-05-09T19:06:01.670Z,27.98
2019-05-09T19:08:29.008Z,30.10
2019-05-09T19:10:56.389Z,26.82
2019-05-09T19:13:25.979Z,20.35
2019-05-09T19:15:58.217Z,15.20
2019-05-09T19:18:44.706Z,13.05
2019-05-09T19:21:16.422Z,13.62
2019-05-09T19:23:43.707Z,37.78
2019-05-09T19:26:29.303Z,101.22
2019-05-09T19:28:57.739Z,73.28
2019-05-09T19:31:25.008Z,101.50
2019-05-09T19:33:52.362Z,107.75
2019-05-09T19:36:20.556Z,110.12
2019-05-09T19:38:49.302Z,78.90
2019-05-09T19:41:17.327Z,123.90
2019-05-09T19:43:44.742Z,88.55
2019-05-09T19:46:12.044Z,40.58
2019-05-09T19:48:40.085Z,27.52
2019-05-09T19:51:07.436Z,13.15
2019-05-09T19:53:35.192Z,11.20
2019-05-09T19:56:02.557Z,10.65
2019-05-09T19:58:29.844Z,9.10
2019-05-09T20:00:57.055Z,8.48
2019-05-09T20:03:24.468Z,9.33
2019-05-09T20:05:51.814Z,8.68
2019-05-09T20:08:19.153Z,8.70
2019-05-09T20:11:02.143Z,10.00
2019-05-09T20:13:48.147Z,9.30
2019-05-09T20:16:15.615Z,7.67
2019-05-09T20:18:42.985Z,8.05
2019-05-09T20:21:10.300Z,24.72
2019-05-09T20:23:37.604Z,7.53
2019-05-09T20:26:06.258Z,7.90
2019-05-09T20:28:34.231Z,6.33
2019-05-09T20:31:02.757Z,5.53
2019-05-09T20:33:30.010Z,5.70
2019-05-09T20:35:57.310Z,5.85
2019-05-09T20:38:26.090Z,6.30
2019-05-09T20:40:54.994Z,6.60
2019-05-09T20:43:22.335Z,7.22
2019-05-09T20:45:49.668Z,7.55
2019-05-09T20:48:16.947Z,10.70
2019-05-09T20:50:44.729Z,16.80
2019-05-09T20:53:12.073Z,23.32
2019-05-09T20:55:39.288Z,25.40
2019-05-09T20:58:06.565Z,18.45
2019-05-09T21:00:33.880Z,17.80
2019-05-09T21:03:01.132Z,13.18
2019-05-09T21:05:28.857Z,26.07
2019-05-09T21:07:56.154Z,21.52
2019-05-09T21:10:23.429Z,15.28
2019-05-09T21:12:50.688Z,10.15
2019-05-09T21:15:18.013Z,11.63
2019-05-09T21:17:45.218Z,11.55
2019-05-09T21:20:12.487Z,11.10
2019-05-09T21:22:39.839Z,10.98
2019-05-09T21:25:07.724Z,12.80
2019-05-09T21:27:35.291Z,17.55
2019-05-09T21:30:04.080Z,9.38
2019-05-09T21:32:31.494Z,18.00
2019-05-09T21:34:58.744Z,15.50
2019-05-09T21:37:26.361Z,14.38
2019-05-09T21:39:53.598Z,12.78
2019-05-09T21:42:23.410Z,13.48
2019-05-09T21:44:50.687Z,12.40
2019-05-09T21:47:17.919Z,13.30
2019-05-09T21:49:45.131Z,10.68
2019-05-09T21:52:12.530Z,10.82
2019-05-09T21:54:39.839Z,10.30
2019-05-09T21:57:09.184Z,10.58
2019-05-09T21:59:36.612Z,9.73
2019-05-09T22:02:04.681Z,8.78
2019-05-09T22:04:33.925Z,9.33
2019-05-09T22:07:02.453Z,9.28
2019-05-09T22:09:29.716Z,10.50
2019-05-09T22:11:56.951Z,8.25
2019-05-09T22:14:24.258Z,8.85
2019-05-09T22:16:51.606Z,8.03
2019-05-09T22:19:18.840Z,6.62
2019-05-09T22:21:46.138Z,7.28
2019-05-09T22:24:13.369Z,6.33
2019-05-09T22:26:40.669Z,6.37
2019-05-09T22:29:07.933Z,6.97
2019-05-09T22:31:35.209Z,7.75
2019-05-09T22:34:02.450Z,7.55
2019-05-09T22:36:29.736Z,7.65
2019-05-09T22:38:56.982Z,7.78
2019-05-09T22:41:24.580Z,7.83
2019-05-09T22:43:52.704Z,9.55
2019-05-09T22:46:20.284Z,9.53
2019-05-09T22:48:47.653Z,10.05
2019-05-09T22:51:15.198Z,9.15
2019-05-09T22:53:42.450Z,10.48
2019-05-09T22:56:10.014Z,10.65
2019-05-09T22:58:37.369Z,12.93
2019-05-09T23:01:04.742Z,14.95
2019-05-09T23:03:32.030Z,16.35
2019-05-09T23:05:59.355Z,14.55
2019-05-09T23:08:26.617Z,14.50
2019-05-09T23:10:55.786Z,14.28
2019-05-09T23:13:23.183Z,13.72
2019-05-09T23:15:50.841Z,14.43
2019-05-09T23:18:18.418Z,15.05
2019-05-09T23:20:47.512Z,14.98
2019-05-09T23:23:23.054Z,13.98
2019-05-09T23:25:50.845Z,15.75
2019-05-09T23:28:18.432Z,18.27
2019-05-09T23:30:48.411Z,15.15
2019-05-09T23:33:15.737Z,12.37
2019-05-09T23:35:42.966Z,16.87
2019-05-09T23:38:10.242Z,68.00
2019-05-09T23:40:37.516Z,43.17
2019-05-09T23:43:04.779Z,13.45
2019-05-09T23:45:33.479Z,14.68
2019-05-09T23:48:00.771Z,11.63
2019-05-09T23:50:28.351Z,10.10
2019-05-09T23:52:55.592Z,10.90
2019-05-09T23:55:41.158Z,10.98
2019-05-09T23:58:26.785Z,10.45
